createdAt,value
2016-12-13T00:00:06.507Z,0
2016-12-13T00:01:06.531Z,0
2016-12-13T00:02:06.953Z,0
2016-12-13T00:03:06.957Z,0
2016-12-13T00:04:06.259Z,0
2016-12-13T00:05:06.260Z,0
2016-12-13T00:06:06.536Z,0
2016-12-13T00:07:06.309Z,0
2016-12-13T00:08:06.960Z,0
2016-12-13T00:09:06.657Z,0
2016-12-13T00:10:06.559Z,0
2016-12-13T00:11:06.618Z,0
2016-12-13T00:12:06.292Z,0
2016-12-13T00:13:06.636Z,0
2016-12-13T00:14:06.590Z,0
2016-12-13T00:15:06.595Z,0
2016-12-13T00:16:06.335Z,0
2016-12-13T00:17:06.296Z,0
2016-12-13T00:18:06.975Z,0
2016-12-13T00:19:06.356Z,0
2016-12-13T00:20:06.100Z,0
2016-12-13T00:21:06.691Z,0
2016-12-13T00:22:06.333Z,0
2016-12-13T00:23:07.012Z,0
2016-12-13T00:24:06.650Z,0
2016-12-13T00:25:06.709Z,0
2016-12-13T00:26:07.031Z,0
2016-12-13T00:27:06.675Z,0
2016-12-13T00:28:06.810Z,0
2016-12-13T00:29:06.425Z,0
2016-12-13T00:30:07.113Z,0
2016-12-13T00:31:06.436Z,0
2016-12-13T00:32:06.757Z,0
2016-12-13T00:33:06.472Z,0
2016-12-13T00:34:06.466Z,0
2016-12-13T00:35:06.517Z,0
2016-12-13T00:36:06.482Z,0
2016-12-13T00:37:06.787Z,0
2016-12-13T00:38:06.747Z,0
2016-12-13T00:39:06.437Z,0
2016-12-13T00:40:06.823Z,0
2016-12-13T00:41:06.763Z,0
2016-12-13T00:42:06.826Z,0
2016-12-13T00:43:06.782Z,0
2016-12-13T00:44:06.840Z,0
2016-12-13T00:45:06.796Z,0
2016-12-13T00:46:06.835Z,0
2016-12-13T00:47:06.864Z,0
2016-12-13T00:48:06.813Z,0
2016-12-13T00:49:06.195Z,0
2016-12-13T00:50:06.873Z,0
2016-12-13T00:51:06.835Z,0
2016-12-13T00:52:06.892Z,0
2016-12-13T00:53:06.581Z,0
2016-12-13T00:54:07.178Z,0
2016-12-13T00:55:06.870Z,0
2016-12-13T00:56:07.183Z,0
2016-12-13T00:57:06.556Z,0
2016-12-13T00:58:06.932Z,0
2016-12-13T00:59:06.933Z,0
2016-12-13T01:00:06.888Z,0
2016-12-13T01:01:06.907Z,0
2016-12-13T01:02:06.280Z,0
2016-12-13T01:03:06.695Z,0
2016-12-13T01:04:06.341Z,0
2016-12-13T01:05:06.921Z,0
2016-12-13T01:06:06.982Z,0
2016-12-13T01:07:06.675Z,0
2016-12-13T01:08:07.305Z,0
2016-12-13T01:09:07.026Z,0
2016-12-13T01:10:07.007Z,0
2016-12-13T01:11:07.009Z,0
2016-12-13T01:12:06.346Z,0
2016-12-13T01:13:07.028Z,0
2016-12-13T01:14:07.347Z,0
2016-12-13T01:15:06.735Z,0
2016-12-13T01:16:06.736Z,0
2016-12-13T01:17:07.051Z,0
2016-12-13T01:18:07.317Z,0
2016-12-13T01:19:07.034Z,0
2016-12-13T01:20:06.808Z,0
2016-12-13T01:21:06.815Z,0
2016-12-13T01:22:06.465Z,0
2016-12-13T01:23:07.039Z,0
2016-12-13T01:24:07.051Z,0
2016-12-13T01:25:07.413Z,0
2016-12-13T01:26:06.752Z,0
2016-12-13T01:27:07.169Z,0
2016-12-13T01:28:06.761Z,0
2016-12-13T01:29:07.079Z,0
2016-12-13T01:30:07.452Z,0
2016-12-13T01:31:07.091Z,0
2016-12-13T01:32:07.410Z,0
2016-12-13T01:33:07.507Z,0
2016-12-13T01:34:06.844Z,0
2016-12-13T01:35:06.821Z,0
2016-12-13T01:36:07.466Z,0
2016-12-13T01:37:07.443Z,0
2016-12-13T01:38:06.522Z,0
2016-12-13T01:39:07.143Z,0
2016-12-13T01:40:07.206Z,0
2016-12-13T01:41:07.518Z,0
2016-12-13T01:42:07.163Z,0
2016-12-13T01:43:06.907Z,0
2016-12-13T01:44:07.590Z,0
2016-12-13T01:45:07.576Z,0
2016-12-13T01:46:07.525Z,0
2016-12-13T01:47:07.291Z,0
2016-12-13T01:48:06.887Z,0
2016-12-13T01:49:07.257Z,0
2016-12-13T01:50:07.316Z,0
2016-12-13T01:51:07.537Z,0
2016-12-13T01:52:06.958Z,0
2016-12-13T01:53:07.284Z,0
2016-12-13T01:54:06.926Z,0
2016-12-13T01:55:07.663Z,0
2016-12-13T01:56:07.352Z,0
2016-12-13T01:57:07.252Z,0
2016-12-13T01:58:21.831Z,0
2016-12-13T01:59:07.269Z,0
2016-12-13T02:00:07.283Z,0
2016-12-13T02:01:07.345Z,0
2016-12-13T02:02:06.978Z,0
2016-12-13T02:03:07.659Z,0
2016-12-13T02:04:07.357Z,0
2016-12-13T02:05:07.311Z,0
2016-12-13T02:06:07.350Z,0
2016-12-13T02:07:07.323Z,0
2016-12-13T02:08:07.700Z,0
2016-12-13T02:09:07.027Z,0
2016-12-13T02:10:07.396Z,0
2016-12-13T02:11:07.353Z,0
2016-12-13T02:12:07.102Z,0
2016-12-13T02:13:07.440Z,0
2016-12-13T02:14:07.366Z,0
2016-12-13T02:15:07.737Z,0
2016-12-13T02:16:07.120Z,0
2016-12-13T02:17:07.437Z,0
2016-12-13T02:18:07.399Z,0
2016-12-13T02:19:07.140Z,0
2016-12-13T02:20:07.407Z,0
2016-12-13T02:21:07.830Z,0
2016-12-13T02:22:07.263Z,0
2016-12-13T02:23:07.531Z,0
2016-12-13T02:24:07.437Z,0
2016-12-13T02:25:07.183Z,0
2016-12-13T02:26:07.184Z,0
2016-12-13T02:27:07.187Z,0
2016-12-13T02:28:51.468Z,0
2016-12-13T02:29:15.963Z,0
2016-12-13T02:30:15.893Z,0
2016-12-13T02:31:15.848Z,0
2016-12-13T02:32:15.900Z,0
2016-12-13T02:33:16.170Z,0
2016-12-13T02:34:15.915Z,0
2016-12-13T02:35:16.233Z,0
2016-12-13T02:36:15.254Z,0
2016-12-13T02:37:16.298Z,0
2016-12-13T02:38:16.205Z,0
2016-12-13T02:39:15.586Z,0
2016-12-13T02:40:15.952Z,0
2016-12-13T02:41:16.221Z,0
2016-12-13T02:42:16.231Z,0
2016-12-13T02:43:15.659Z,0
2016-12-13T02:44:16.215Z,0
2016-12-13T02:45:16.084Z,0
2016-12-13T02:46:16.255Z,0
2016-12-13T02:47:16.300Z,0
2016-12-13T02:48:15.641Z,0
2016-12-13T02:49:16.324Z,0
2016-12-13T02:50:16.018Z,0
2016-12-13T02:51:15.715Z,0
2016-12-13T02:52:15.981Z,0
2016-12-13T02:53:15.674Z,0
2016-12-13T02:54:15.520Z,0
2016-12-13T02:55:16.000Z,0
2016-12-13T02:56:15.383Z,0
2016-12-13T02:57:16.021Z,0
2016-12-13T02:58:15.760Z,0
2016-12-13T02:59:16.035Z,0
2016-12-13T03:00:16.187Z,0
2016-12-13T03:01:15.882Z,0
2016-12-13T03:02:16.038Z,0
2016-12-13T03:03:15.843Z,0
2016-12-13T03:04:16.147Z,0
2016-12-13T03:05:16.118Z,0
2016-12-13T03:06:15.819Z,0
2016-12-13T03:07:16.126Z,0
2016-12-13T03:08:15.853Z,0
2016-12-13T03:09:15.830Z,0
2016-12-13T03:10:16.509Z,0
2016-12-13T03:11:16.471Z,0
2016-12-13T03:12:16.112Z,0
2016-12-13T03:13:16.485Z,0
2016-12-13T03:14:16.125Z,0
2016-12-13T03:15:16.183Z,0
2016-12-13T03:16:16.137Z,0
2016-12-13T03:17:16.147Z,0
2016-12-13T03:18:16.158Z,0
2016-12-13T03:19:15.588Z,0
2016-12-13T03:20:16.524Z,0
2016-12-13T03:21:16.483Z,0
2016-12-13T03:22:15.913Z,0
2016-12-13T03:23:16.317Z,0
2016-12-13T03:24:16.238Z,0
2016-12-13T03:25:16.203Z,0
2016-12-13T03:26:16.617Z,0
2016-12-13T03:27:16.577Z,0
2016-12-13T03:28:15.907Z,0
2016-12-13T03:29:16.272Z,0
2016-12-13T03:30:16.278Z,0
2016-12-13T03:31:16.588Z,0
2016-12-13T03:32:16.342Z,0
2016-12-13T03:33:16.621Z,0
2016-12-13T03:34:15.941Z,0
2016-12-13T03:35:17.376Z,0
2016-12-13T03:36:15.953Z,0
2016-12-13T03:37:16.369Z,0
2016-12-13T03:38:16.378Z,0
2016-12-13T03:39:16.604Z,0
2016-12-13T03:40:16.288Z,0
2016-12-13T03:41:16.085Z,0
2016-12-13T03:42:16.364Z,0
2016-12-13T03:43:16.054Z,0
2016-12-13T03:44:16.430Z,0
2016-12-13T03:45:16.011Z,0
2016-12-13T03:46:16.329Z,0
2016-12-13T03:47:16.019Z,0
2016-12-13T03:48:15.716Z,0
2016-12-13T03:49:16.345Z,0
2016-12-13T03:50:16.665Z,0
2016-12-13T03:51:16.677Z,0
2016-12-13T03:52:16.110Z,0
2016-12-13T03:53:16.688Z,0
2016-12-13T03:54:16.432Z,0
2016-12-13T03:55:15.764Z,0
2016-12-13T03:56:16.441Z,0
2016-12-13T03:57:16.449Z,0
2016-12-13T03:58:16.455Z,0
2016-12-13T03:59:16.412Z,0
2016-12-13T04:00:16.465Z,0
2016-12-13T04:01:16.787Z,0
2016-12-13T04:02:16.741Z,0
2016-12-13T04:03:16.857Z,0
2016-12-13T04:04:16.446Z,0
2016-12-13T04:05:16.502Z,0
2016-12-13T04:06:16.509Z,0
2016-12-13T04:07:16.203Z,0
2016-12-13T04:08:16.518Z,0
2016-12-13T04:09:16.575Z,0
2016-12-13T04:10:16.532Z,0
2016-12-13T04:11:16.802Z,0
2016-12-13T04:12:16.493Z,0
2016-12-13T04:13:16.240Z,0
2016-12-13T04:14:16.242Z,0
2016-12-13T04:15:16.565Z,0
2016-12-13T04:16:15.895Z,0
2016-12-13T04:17:16.889Z,0
2016-12-13T04:18:16.901Z,0
2016-12-13T04:19:16.589Z,0
2016-12-13T04:20:16.859Z,0
2016-12-13T04:21:16.554Z,0
2016-12-13T04:22:16.859Z,0
2016-12-13T04:23:16.890Z,0
2016-12-13T04:24:16.620Z,0
2016-12-13T04:25:16.577Z,0
2016-12-13T04:26:16.996Z,0
2016-12-13T04:27:16.640Z,0
2016-12-13T04:28:16.603Z,0
2016-12-13T04:29:16.342Z,0
2016-12-13T04:30:16.610Z,0
2016-12-13T04:31:16.929Z,0
2016-12-13T04:32:16.623Z,0
2016-12-13T04:33:16.315Z,0
2016-12-13T04:34:16.376Z,0
2016-12-13T04:35:16.378Z,0
2016-12-13T04:36:16.648Z,0
2016-12-13T04:37:16.705Z,0
2016-12-13T04:38:17.102Z,0
2016-12-13T04:39:16.667Z,0
2016-12-13T04:40:16.986Z,0
2016-12-13T04:41:16.995Z,0
2016-12-13T04:42:16.685Z,0
2016-12-13T04:43:16.744Z,0
2016-12-13T04:44:17.015Z,0
2016-12-13T04:45:17.067Z,0
2016-12-13T04:46:16.398Z,0
2016-12-13T04:47:16.717Z,0
2016-12-13T04:48:16.418Z,0
2016-12-13T04:49:16.166Z,0
2016-12-13T04:50:16.473Z,0
2016-12-13T04:51:16.798Z,0
2016-12-13T04:52:16.436Z,0
2016-12-13T04:53:16.510Z,0
2016-12-13T04:54:16.499Z,0
2016-12-13T04:55:17.184Z,0
2016-12-13T04:56:16.827Z,0
2016-12-13T04:57:16.518Z,0
2016-12-13T04:58:17.101Z,0
2016-12-13T04:59:16.534Z,0
2016-12-13T05:00:17.165Z,0
2016-12-13T05:01:16.831Z,0
2016-12-13T05:02:16.552Z,0
2016-12-13T05:03:16.870Z,0
2016-12-13T05:04:16.829Z,0
2016-12-13T05:05:17.142Z,0
2016-12-13T05:06:16.847Z,0
2016-12-13T05:07:16.732Z,0
2016-12-13T05:08:17.218Z,0
2016-12-13T05:09:16.624Z,0
2016-12-13T05:10:16.237Z,0
2016-12-13T05:11:16.899Z,0
2016-12-13T05:12:17.258Z,0
2016-12-13T05:13:17.250Z,0
2016-12-13T05:14:16.679Z,0
2016-12-13T05:15:16.638Z,0
2016-12-13T05:16:17.219Z,0
2016-12-13T05:17:16.726Z,0
2016-12-13T05:18:16.907Z,0
2016-12-13T05:19:16.446Z,0
2016-12-13T05:20:16.980Z,0
2016-12-13T05:21:16.675Z,0
2016-12-13T05:22:16.939Z,0
2016-12-13T05:23:17.049Z,0
2016-12-13T05:24:17.268Z,0
2016-12-13T05:25:16.965Z,0
2016-12-13T05:26:16.705Z,0
2016-12-13T05:27:16.351Z,0
2016-12-13T05:28:17.340Z,0
2016-12-13T05:29:17.050Z,0
2016-12-13T05:30:17.045Z,0
2016-12-13T05:31:17.000Z,0
2016-12-13T05:32:17.320Z,0
2016-12-13T05:33:17.067Z,0
2016-12-13T05:34:17.016Z,0
2016-12-13T05:35:17.104Z,0
2016-12-13T05:36:17.081Z,0
2016-12-13T05:37:17.087Z,0
2016-12-13T05:38:17.357Z,0
2016-12-13T05:39:16.739Z,0
2016-12-13T05:40:17.423Z,0
2016-12-13T05:41:17.481Z,0
2016-12-13T05:42:16.491Z,0
2016-12-13T05:43:17.079Z,0
2016-12-13T05:44:16.767Z,0
2016-12-13T05:45:17.194Z,0
2016-12-13T05:46:16.833Z,0
2016-12-13T05:47:17.102Z,0
2016-12-13T05:48:16.941Z,0
2016-12-13T05:49:16.802Z,0
2016-12-13T05:50:16.807Z,0
2016-12-13T05:51:17.127Z,0
2016-12-13T05:52:17.234Z,0
2016-12-13T05:53:17.243Z,0
2016-12-13T05:54:16.568Z,0
2016-12-13T05:55:17.206Z,0
2016-12-13T05:56:17.476Z,0
2016-12-13T05:57:16.902Z,0
2016-12-13T05:58:17.487Z,0
2016-12-13T05:59:17.179Z,0
2016-12-13T06:00:17.186Z,0
2016-12-13T06:01:16.878Z,0
2016-12-13T06:02:17.248Z,0
2016-12-13T06:03:17.233Z,0
2016-12-13T06:04:16.583Z,0
2016-12-13T06:05:17.215Z,0
2016-12-13T06:06:16.920Z,0
2016-12-13T06:07:16.965Z,0
2016-12-13T06:08:17.549Z,0
2016-12-13T06:09:17.288Z,0
2016-12-13T06:10:17.563Z,0
2016-12-13T06:11:16.628Z,0
2016-12-13T06:12:17.313Z,0
2016-12-13T06:13:17.317Z,0
2016-12-13T06:14:17.324Z,0
2016-12-13T06:15:16.702Z,0
2016-12-13T06:16:17.002Z,0
2016-12-13T06:17:17.605Z,0
2016-12-13T06:18:17.347Z,0
2016-12-13T06:19:16.741Z,0
2016-12-13T06:20:17.049Z,0
2016-12-13T06:21:17.058Z,0
2016-12-13T06:22:17.330Z,0
2016-12-13T06:23:17.694Z,0
2016-12-13T06:24:17.028Z,0
2016-12-13T06:25:17.348Z,0
2016-12-13T06:26:17.100Z,0
2016-12-13T06:27:17.049Z,0
2016-12-13T06:28:33.634Z,0
2016-12-13T06:29:17.525Z,0
2016-12-13T06:30:17.739Z,0
2016-12-13T06:31:17.383Z,0
2016-12-13T06:32:17.436Z,0
2016-12-13T06:33:17.133Z,0
2016-12-13T06:34:17.765Z,0
2016-12-13T06:35:17.197Z,0
2016-12-13T06:36:17.420Z,0
2016-12-13T06:37:17.158Z,0
2016-12-13T06:38:17.814Z,0
2016-12-13T06:39:17.847Z,0
2016-12-13T06:40:17.436Z,0
2016-12-13T06:41:17.810Z,0
2016-12-13T06:42:17.815Z,0
2016-12-13T06:43:17.194Z,0
2016-12-13T06:44:17.517Z,0
2016-12-13T06:45:17.209Z,0
2016-12-13T06:46:17.476Z,0
2016-12-13T06:47:17.221Z,0
2016-12-13T06:48:16.863Z,0
2016-12-13T06:49:17.501Z,0
2016-12-13T06:50:17.504Z,0
2016-12-13T06:51:17.957Z,0
2016-12-13T06:52:17.823Z,0
2016-12-13T06:53:17.216Z,0
2016-12-13T06:54:17.266Z,0
2016-12-13T06:55:17.271Z,0
2016-12-13T06:56:17.859Z,0
2016-12-13T06:57:17.961Z,0
2016-12-13T06:58:17.239Z,0
2016-12-13T06:59:17.924Z,0
2016-12-13T07:00:17.349Z,0
2016-12-13T07:01:17.582Z,0
2016-12-13T07:02:17.679Z,0
2016-12-13T07:03:17.325Z,0
2016-12-13T07:04:17.280Z,0
2016-12-13T07:05:17.646Z,0
2016-12-13T07:06:17.292Z,0
2016-12-13T07:07:17.933Z,0
2016-12-13T07:08:17.405Z,0
2016-12-13T07:09:17.627Z,0
2016-12-13T07:10:17.005Z,0
2016-12-13T07:11:17.639Z,0
2016-12-13T07:12:17.377Z,4
2016-12-13T07:13:18.062Z,4
2016-12-13T07:14:17.659Z,4
2016-12-13T07:15:17.400Z,4
2016-12-13T07:16:18.083Z,0
2016-12-13T07:17:17.414Z,0
2016-12-13T07:18:17.784Z,0
2016-12-13T07:19:17.687Z,0
2016-12-13T07:20:17.481Z,0
2016-12-13T07:21:18.062Z,0
2016-12-13T07:22:17.709Z,4
2016-12-13T07:23:17.886Z,4
2016-12-13T07:24:17.821Z,4
2016-12-13T07:25:18.062Z,4
2016-12-13T07:26:17.784Z,4
2016-12-13T07:27:17.162Z,4
2016-12-13T07:28:17.799Z,4
2016-12-13T07:29:17.124Z,4
2016-12-13T07:30:18.079Z,4
2016-12-13T07:31:17.759Z,4
2016-12-13T07:32:17.822Z,4
2016-12-13T07:33:17.875Z,4
2016-12-13T07:34:17.628Z,8
2016-12-13T07:35:18.152Z,8
2016-12-13T07:36:17.849Z,8
2016-12-13T07:37:17.591Z,4
2016-12-13T07:38:17.593Z,8
2016-12-13T07:39:17.506Z,8
2016-12-13T07:40:18.187Z,4
2016-12-13T07:41:18.126Z,4
2016-12-13T07:42:17.885Z,4
2016-12-13T07:43:18.456Z,4
2016-12-13T07:44:17.971Z,4
2016-12-13T07:45:17.906Z,4
2016-12-13T07:46:18.171Z,4
2016-12-13T07:47:17.916Z,4
2016-12-13T07:48:18.193Z,4
2016-12-13T07:49:17.614Z,8
2016-12-13T07:50:17.621Z,8
2016-12-13T07:51:17.953Z,12
2016-12-13T07:52:17.952Z,8
2016-12-13T07:53:17.646Z,8
2016-12-13T07:54:17.651Z,8
2016-12-13T07:55:17.659Z,8
2016-12-13T07:56:17.640Z,12
2016-12-13T07:57:17.673Z,12
2016-12-13T07:58:18.039Z,12
2016-12-13T07:59:17.864Z,12
2016-12-13T08:00:18.050Z,12
2016-12-13T08:01:17.961Z,12
2016-12-13T08:02:17.706Z,12
2016-12-13T08:03:17.345Z,12
2016-12-13T08:04:18.025Z,12
2016-12-13T08:05:17.513Z,12
2016-12-13T08:06:17.995Z,12
2016-12-13T08:07:18.414Z,16
2016-12-13T08:08:18.011Z,16
2016-12-13T08:09:18.063Z,16
2016-12-13T08:10:18.006Z,16
2016-12-13T08:11:18.127Z,16
2016-12-13T08:12:18.087Z,16
2016-12-13T08:13:17.780Z,16
2016-12-13T08:14:18.357Z,16
2016-12-13T08:15:17.530Z,16
2016-12-13T08:16:18.191Z,20
2016-12-13T08:17:18.115Z,20
2016-12-13T08:18:18.437Z,20
2016-12-13T08:19:17.553Z,20
2016-12-13T08:20:18.241Z,20
2016-12-13T08:21:18.457Z,20
2016-12-13T08:22:18.149Z,20
2016-12-13T08:23:18.255Z,24
2016-12-13T08:24:18.114Z,24
2016-12-13T08:25:17.907Z,20
2016-12-13T08:26:18.490Z,20
2016-12-13T08:27:18.185Z,20
2016-12-13T08:28:17.828Z,24
2016-12-13T08:29:17.834Z,28
2016-12-13T08:30:18.516Z,28
2016-12-13T08:31:18.579Z,28
2016-12-13T08:32:17.913Z,28
2016-12-13T08:33:18.636Z,28
2016-12-13T08:34:18.552Z,32
2016-12-13T08:35:18.291Z,32
2016-12-13T08:36:18.247Z,32
2016-12-13T08:37:17.994Z,36
2016-12-13T08:38:18.572Z,36
2016-12-13T08:39:18.582Z,36
2016-12-13T08:40:18.226Z,36
2016-12-13T08:41:18.020Z,40
2016-12-13T08:42:18.063Z,40
2016-12-13T08:43:18.450Z,40
2016-12-13T08:44:17.678Z,40
2016-12-13T08:45:17.951Z,40
2016-12-13T08:46:17.954Z,44
2016-12-13T08:47:18.112Z,40
2016-12-13T08:48:18.649Z,40
2016-12-13T08:49:18.027Z,40
2016-12-13T08:50:17.986Z,44
2016-12-13T08:51:18.620Z,40
2016-12-13T08:52:18.097Z,44
2016-12-13T08:53:18.059Z,104
2016-12-13T08:54:18.685Z,128
2016-12-13T08:55:18.125Z,136
2016-12-13T08:56:18.751Z,136
2016-12-13T08:57:18.397Z,56
2016-12-13T08:58:18.708Z,60
2016-12-13T08:59:18.674Z,60
2016-12-13T09:00:18.452Z,64
2016-12-13T09:01:18.687Z,68
2016-12-13T09:02:17.853Z,76
2016-12-13T09:03:18.186Z,80
2016-12-13T09:04:18.390Z,88
2016-12-13T09:05:17.825Z,92
2016-12-13T09:06:18.455Z,100
2016-12-13T09:07:18.560Z,100
2016-12-13T09:08:18.207Z,100
2016-12-13T09:09:18.478Z,108
2016-12-13T09:10:18.439Z,112
2016-12-13T09:11:18.595Z,112
2016-12-13T09:12:18.184Z,112
2016-12-13T09:13:18.243Z,112
2016-12-13T09:14:18.778Z,108
2016-12-13T09:15:18.567Z,112
2016-12-13T09:16:19.142Z,116
2016-12-13T09:17:18.584Z,120
2016-12-13T09:18:18.540Z,120
2016-12-13T09:19:18.283Z,128
2016-12-13T09:20:18.604Z,132
2016-12-13T09:21:18.563Z,136
2016-12-13T09:22:18.214Z,132
2016-12-13T09:23:18.261Z,132
2016-12-13T09:24:18.272Z,132
2016-12-13T09:25:18.641Z,128
2016-12-13T09:26:18.236Z,128
2016-12-13T09:27:18.580Z,128
2016-12-13T09:28:18.301Z,128
2016-12-13T09:29:18.362Z,132
2016-12-13T09:30:18.938Z,132
2016-12-13T09:31:18.321Z,132
2016-12-13T09:32:18.639Z,136
2016-12-13T09:33:18.970Z,140
2016-12-13T09:34:18.654Z,136
2016-12-13T09:35:18.974Z,140
2016-12-13T09:36:18.304Z,152
2016-12-13T09:37:19.043Z,160
2016-12-13T09:38:18.417Z,176
2016-12-13T09:39:18.089Z,180
2016-12-13T09:40:18.336Z,180
2016-12-13T09:41:18.654Z,176
2016-12-13T09:42:19.022Z,168
2016-12-13T09:43:18.980Z,160
2016-12-13T09:44:18.724Z,144
2016-12-13T09:45:18.056Z,132
2016-12-13T09:46:19.031Z,120
2016-12-13T09:47:18.749Z,112
2016-12-13T09:48:18.439Z,112
2016-12-13T09:49:18.139Z,108
2016-12-13T09:50:18.432Z,104
2016-12-13T09:51:19.088Z,104
2016-12-13T09:52:19.092Z,104
2016-12-13T09:53:18.844Z,96
2016-12-13T09:54:18.436Z,88
2016-12-13T09:55:18.749Z,80
2016-12-13T09:56:24.300Z,84
2016-12-13T09:57:18.455Z,92
2016-12-13T09:58:18.516Z,92
2016-12-13T09:59:18.832Z,96
2016-12-13T10:00:18.796Z,100
2016-12-13T10:01:18.168Z,108
2016-12-13T10:02:18.853Z,108
2016-12-13T10:03:18.577Z,108
2016-12-13T10:04:18.555Z,112
2016-12-13T10:05:18.541Z,104
2016-12-13T10:06:18.525Z,104
2016-12-13T10:07:18.614Z,104
2016-12-13T10:08:18.222Z,100
2016-12-13T10:09:18.908Z,100
2016-12-13T10:10:18.862Z,108
2016-12-13T10:11:18.608Z,104
2016-12-13T10:12:18.980Z,104
2016-12-13T10:13:19.255Z,104
2016-12-13T10:14:18.639Z,112
2016-12-13T10:15:18.641Z,112
2016-12-13T10:16:18.280Z,112
2016-12-13T10:17:18.966Z,120
2016-12-13T10:18:18.971Z,120
2016-12-13T10:19:18.613Z,124
2016-12-13T10:20:18.624Z,116
2016-12-13T10:21:19.257Z,104
2016-12-13T10:22:19.267Z,100
2016-12-13T10:23:18.964Z,100
2016-12-13T10:24:19.061Z,96
2016-12-13T10:25:19.335Z,88
2016-12-13T10:26:18.666Z,92
2016-12-13T10:27:19.352Z,100
2016-12-13T10:28:19.091Z,96
2016-12-13T10:29:19.365Z,88
2016-12-13T10:30:19.468Z,84
2016-12-13T10:31:19.168Z,80
2016-12-13T10:32:18.759Z,76
2016-12-13T10:33:18.777Z,84
2016-12-13T10:34:18.784Z,84
2016-12-13T10:35:18.420Z,96
2016-12-13T10:36:18.737Z,100
2016-12-13T10:37:18.897Z,104
2016-12-13T10:38:19.113Z,108
2016-12-13T10:39:18.551Z,112
2016-12-13T10:40:19.230Z,120
2016-12-13T10:41:19.189Z,136
2016-12-13T10:42:19.457Z,140
2016-12-13T10:43:19.300Z,136
2016-12-13T10:44:19.258Z,144
2016-12-13T10:45:19.367Z,140
2016-12-13T10:46:19.174Z,140
2016-12-13T10:47:18.918Z,144
2016-12-13T10:48:19.729Z,140
2016-12-13T10:49:33.762Z,116
2016-12-13T10:50:22.104Z,120
2016-12-13T10:51:18.844Z,116
2016-12-13T10:52:19.218Z,116
2016-12-13T10:53:20.975Z,124
2016-12-13T10:54:18.605Z,116
2016-12-13T10:55:19.548Z,120
2016-12-13T10:56:19.252Z,112
2016-12-13T10:57:18.893Z,120
2016-12-13T10:58:19.213Z,128
2016-12-13T10:59:18.905Z,124
2016-12-13T11:00:18.913Z,116
2016-12-13T11:01:19.618Z,124
2016-12-13T11:02:18.925Z,136
2016-12-13T11:03:19.293Z,140
2016-12-13T11:04:19.669Z,144
2016-12-13T11:05:18.950Z,160
2016-12-13T11:06:19.023Z,180
2016-12-13T11:07:19.277Z,180
2016-12-13T11:08:19.646Z,176
2016-12-13T11:09:19.401Z,188
2016-12-13T11:10:19.347Z,188
2016-12-13T11:11:20.269Z,196
2016-12-13T11:12:19.003Z,208
2016-12-13T11:13:19.692Z,208
2016-12-13T11:14:19.073Z,224
2016-12-13T11:15:19.072Z,232
2016-12-13T11:16:19.348Z,232
2016-12-13T11:17:19.036Z,232
2016-12-13T11:18:19.354Z,200
2016-12-13T11:19:19.419Z,212
2016-12-13T11:20:19.377Z,256
2016-12-13T11:21:19.380Z,276
2016-12-13T11:22:19.801Z,284
2016-12-13T11:23:19.160Z,264
2016-12-13T11:24:19.399Z,252
2016-12-13T11:25:18.778Z,268
2016-12-13T11:26:19.787Z,268
2016-12-13T11:27:19.786Z,288
2016-12-13T11:28:19.425Z,276
2016-12-13T11:29:19.224Z,272
2016-12-13T11:30:19.181Z,272
2016-12-13T11:31:19.769Z,276
2016-12-13T11:32:19.243Z,280
2016-12-13T11:33:19.151Z,304
2016-12-13T11:34:19.156Z,336
2016-12-13T11:35:18.853Z,384
2016-12-13T11:36:19.484Z,440
2016-12-13T11:37:19.856Z,484
2016-12-13T11:38:19.189Z,472
2016-12-13T11:39:19.558Z,444
2016-12-13T11:40:19.206Z,432
2016-12-13T11:41:19.624Z,396
2016-12-13T11:42:19.531Z,356
2016-12-13T11:43:19.329Z,348
2016-12-13T11:44:19.568Z,348
2016-12-13T11:45:19.248Z,348
2016-12-13T11:46:19.607Z,356
2016-12-13T11:47:19.567Z,356
2016-12-13T11:48:19.264Z,340
2016-12-13T11:49:19.995Z,336
2016-12-13T11:50:19.639Z,332
2016-12-13T11:51:19.597Z,328
2016-12-13T11:52:18.982Z,348
2016-12-13T11:53:19.923Z,368
2016-12-13T11:54:19.667Z,380
2016-12-13T11:55:19.941Z,396
2016-12-13T11:56:19.688Z,444
2016-12-13T11:57:19.690Z,472
2016-12-13T11:58:19.705Z,480
2016-12-13T11:59:19.707Z,476
2016-12-13T12:00:19.404Z,456
2016-12-13T12:01:19.453Z,460
2016-12-13T12:02:19.419Z,444
2016-12-13T12:03:19.999Z,404
2016-12-13T12:04:19.695Z,372
2016-12-13T12:05:19.798Z,380
2016-12-13T12:06:20.071Z,388
2016-12-13T12:07:19.406Z,352
2016-12-13T12:08:19.770Z,324
2016-12-13T12:09:19.574Z,292
2016-12-13T12:10:19.574Z,280
2016-12-13T12:11:20.194Z,280
2016-12-13T12:12:19.756Z,268
2016-12-13T12:13:19.477Z,268
2016-12-13T12:14:19.864Z,276
2016-12-13T12:15:19.929Z,296
2016-12-13T12:16:20.102Z,316
2016-12-13T12:17:19.835Z,312
2016-12-13T12:18:19.533Z,316
2016-12-13T12:19:20.172Z,332
2016-12-13T12:20:20.272Z,340
2016-12-13T12:21:19.705Z,344
2016-12-13T12:22:19.825Z,328
2016-12-13T12:23:19.635Z,308
2016-12-13T12:24:20.208Z,300
2016-12-13T12:25:20.259Z,288
2016-12-13T12:26:19.693Z,288
2016-12-13T12:27:19.913Z,268
2016-12-13T12:28:20.230Z,264
2016-12-13T12:29:21.388Z,264
2016-12-13T12:30:19.357Z,256
2016-12-13T12:31:19.670Z,260
2016-12-13T12:32:19.636Z,276
2016-12-13T12:33:21.045Z,284
2016-12-13T12:34:22.001Z,296
2016-12-13T12:35:19.660Z,304
2016-12-13T12:36:19.983Z,312
2016-12-13T12:37:19.675Z,316
2016-12-13T12:38:19.629Z,304
2016-12-13T12:39:19.786Z,280
2016-12-13T12:40:20.016Z,272
2016-12-13T12:41:19.704Z,280
2016-12-13T12:42:19.449Z,300
2016-12-13T12:43:20.081Z,300
2016-12-13T12:44:20.036Z,292
2016-12-13T12:45:20.042Z,260
2016-12-13T12:46:19.523Z,240
2016-12-13T12:47:19.388Z,248
2016-12-13T12:48:19.810Z,248
2016-12-13T12:49:21.026Z,232
2016-12-13T12:50:20.167Z,220
2016-12-13T12:51:20.090Z,216
2016-12-13T12:52:20.094Z,212
2016-12-13T12:53:21.502Z,204
2016-12-13T12:54:20.112Z,192
2016-12-13T12:55:20.187Z,188
2016-12-13T12:56:20.795Z,184
2016-12-13T12:57:21.790Z,192
2016-12-13T12:58:19.924Z,200
2016-12-13T12:59:21.892Z,200
2016-12-13T13:00:22.177Z,204
2016-12-13T13:01:20.660Z,212
2016-12-13T13:02:19.815Z,208
2016-12-13T13:03:21.068Z,228
2016-12-13T13:04:20.183Z,232
2016-12-13T13:05:19.927Z,240
2016-12-13T13:06:20.275Z,248
2016-12-13T13:07:21.005Z,248
2016-12-13T13:08:20.713Z,232
2016-12-13T13:09:22.087Z,216
2016-12-13T13:10:21.826Z,212
2016-12-13T13:11:35.613Z,200
2016-12-13T13:12:20.241Z,204
2016-12-13T13:13:20.806Z,188
2016-12-13T13:14:22.887Z,184
2016-12-13T13:15:20.213Z,192
2016-12-13T13:16:20.471Z,184
2016-12-13T13:17:34.895Z,164
2016-12-13T13:18:20.384Z,148
2016-12-13T13:19:20.034Z,140
2016-12-13T13:20:19.829Z,152
2016-12-13T13:21:19.984Z,156
2016-12-13T13:22:22.149Z,144
2016-12-13T13:23:21.379Z,144
2016-12-13T13:24:20.066Z,144
2016-12-13T13:25:20.686Z,140
2016-12-13T13:26:20.132Z,144
2016-12-13T13:27:20.399Z,136
2016-12-13T13:28:21.574Z,136
2016-12-13T13:29:20.154Z,140
2016-12-13T13:30:20.110Z,128
2016-12-13T13:31:22.140Z,128
2016-12-13T13:32:20.535Z,124
2016-12-13T13:33:21.094Z,116
2016-12-13T13:34:20.404Z,124
2016-12-13T13:35:20.959Z,140
2016-12-13T13:36:20.149Z,148
2016-12-13T13:37:21.121Z,140
2016-12-13T13:38:21.881Z,144
2016-12-13T13:39:20.175Z,144
2016-12-13T13:40:24.899Z,136
2016-12-13T13:41:20.555Z,136
2016-12-13T13:42:20.193Z,128
2016-12-13T13:43:20.512Z,124
2016-12-13T13:44:20.569Z,120
2016-12-13T13:45:20.929Z,120
2016-12-13T13:46:20.850Z,124
2016-12-13T13:47:20.494Z,128
2016-12-13T13:48:20.455Z,120
2016-12-13T13:49:20.510Z,112
2016-12-13T13:50:20.999Z,120
2016-12-13T13:51:22.925Z,120
2016-12-13T13:52:20.970Z,112
2016-12-13T13:53:20.697Z,108
2016-12-13T13:54:19.972Z,112
2016-12-13T13:55:20.556Z,108
2016-12-13T13:56:22.601Z,108
2016-12-13T13:57:20.932Z,116
2016-12-13T13:58:20.627Z,116
2016-12-13T13:59:20.059Z,112
2016-12-13T14:00:20.999Z,112
2016-12-13T14:01:20.949Z,108
2016-12-13T14:02:20.344Z,108
2016-12-13T14:03:23.229Z,112
2016-12-13T14:04:20.716Z,108
2016-12-13T14:05:20.417Z,108
2016-12-13T14:06:22.124Z,104
2016-12-13T14:07:20.432Z,100
2016-12-13T14:08:20.384Z,100
2016-12-13T14:09:20.493Z,104
2016-12-13T14:10:22.567Z,108
2016-12-13T14:11:21.372Z,108
2016-12-13T14:12:20.680Z,112
2016-12-13T14:13:20.806Z,108
2016-12-13T14:14:20.692Z,88
2016-12-13T14:15:20.584Z,92
2016-12-13T14:16:20.394Z,92
2016-12-13T14:17:20.407Z,80
2016-12-13T14:18:21.815Z,84
2016-12-13T14:19:21.999Z,80
2016-12-13T14:20:20.525Z,76
2016-12-13T14:21:22.659Z,84
2016-12-13T14:22:21.115Z,88